Time;durP1;ratioP1;P1;durP2;ratioP2;P2;SDS_P1;SDS_P2;PMS_P1;PMS_P2;Temp;Humidity;BMP_temperature;BMP_pressure;BME280_temperature;BME280_humidity;BME280_pressure;Samples;Min_cycle;Max_cycle;Signal;HPM_P1;HPM_P2
2022/05/18 00:00:27;;;;;;;6.10;3.28;;;18.60;99.90;;;;;;5053806;28;20021;-60
2022/05/18 00:03:04;;;;;;;6.78;3.65;;;18.50;99.90;;;;;;5055287;28;20067;-60
2022/05/18 00:05:31;;;;;;;6.43;3.50;;;18.50;99.90;;;;;;5054899;28;20017;-59
2022/05/18 00:07:57;;;;;;;4.90;3.50;;;18.50;99.90;;;;;;5053426;28;20025;-60
2022/05/18 00:10:22;;;;;;;9.82;4.30;;;18.40;99.90;;;;;;5053370;28;20120;-60
2022/05/18 00:12:50;;;;;;;6.10;3.53;;;18.40;99.90;;;;;;5054629;28;20055;-60
2022/05/18 00:15:19;;;;;;;6.25;3.33;;;18.40;99.90;;;;;;5053587;28;20064;-60
2022/05/18 00:17:45;;;;;;;5.93;3.65;;;18.40;99.90;;;;;;5053522;28;20032;-60
2022/05/18 00:20:11;;;;;;;8.23;3.67;;;18.40;99.90;;;;;;5053242;28;20025;-60
2022/05/18 00:22:56;;;;;;;10.07;3.65;;;18.40;99.90;;;;;;5053189;28;20037;-60
2022/05/18 00:25:25;;;;;;;6.15;3.65;;;18.30;99.90;;;;;;5053091;28;20071;-60
2022/05/18 00:27:51;;;;;;;7.35;3.05;;;18.20;99.90;;;;;;5053017;28;20024;-61
2022/05/18 00:30:19;;;;;;;6.68;3.50;;;18.20;99.90;;;;;;5052885;28;20021;-60
2022/05/18 00:32:45;;;;;;;8.73;3.42;;;18.20;99.90;;;;;;5053351;28;20032;-60
2022/05/18 00:35:12;;;;;;;5.30;3.13;;;18.10;99.90;;;;;;5052806;28;20029;-60
2022/05/18 00:37:37;;;;;;;10.65;3.38;;;18.00;99.90;;;;;;5052990;28;20025;-60
2022/05/18 00:40:05;;;;;;;10.10;4.05;;;17.90;99.90;;;;;;5052786;28;20029;-60
2022/05/18 00:42:30;;;;;;;3.60;2.50;;;17.90;99.90;;;;;;5054007;28;20025;-60
2022/05/18 00:44:56;;;;;;;7.53;3.28;;;17.80;99.90;;;;;;5052747;28;20017;-60
2022/05/18 00:47:22;;;;;;;6.60;3.53;;;17.80;99.90;;;;;;5053505;28;20017;-60
2022/05/18 00:49:56;;;;;;;4.20;2.95;;;17.80;99.90;;;;;;5052550;28;20025;-60
2022/05/18 00:52:27;;;;;;;7.20;3.50;;;17.80;99.90;;;;;;5053537;28;20032;-60
2022/05/18 00:54:55;;;;;;;6.28;3.40;;;17.80;99.90;;;;;;5052484;28;20090;-60
2022/05/18 00:57:32;;;;;;;6.55;3.67;;;17.70;99.90;;;;;;5054017;28;20035;-60
2022/05/18 01:00:04;;;;;;;5.63;3.63;;;17.60;99.90;;;;;;5054114;28;20035;-60
2022/05/18 01:02:34;;;;;;;5.97;3.72;;;17.50;99.90;;;;;;5052314;28;20032;-59
2022/05/18 01:05:05;;;;;;;6.68;4.30;;;17.50;99.90;;;;;;5053973;28;20021;-60
2022/05/18 01:07:36;;;;;;;6.85;3.65;;;17.40;99.90;;;;;;5053737;28;20138;-59
2022/05/18 01:10:04;;;;;;;11.05;3.78;;;17.30;99.90;;;;;;5054041;28;20017;-60
2022/05/18 01:12:29;;;;;;;7.22;4.10;;;17.30;99.90;;;;;;5052650;28;20136;-60
2022/05/18 01:15:10;;;;;;;8.00;3.78;;;17.20;99.90;;;;;;5052273;28;20491;-60
2022/05/18 01:17:38;;;;;;;6.50;3.80;;;17.10;99.90;;;;;;5053451;28;20442;-60
2022/05/18 01:20:09;;;;;;;10.57;3.28;;;17.10;99.90;;;;;;5052340;28;20094;-58
2022/05/18 01:22:59;;;;;;;10.07;3.60;;;17.10;99.90;;;;;;5052531;28;20021;-59
2022/05/18 01:25:42;;;;;;;5.90;3.63;;;17.10;99.90;;;;;;5053355;28;20247;-60
2022/05/18 01:28:08;;;;;;;9.73;3.70;;;17.10;99.90;;;;;;5051867;28;20025;-60
2022/05/18 01:30:37;;;;;;;8.05;3.15;;;17.10;99.90;;;;;;5051893;28;20025;-60
2022/05/18 01:33:07;;;;;;;7.60;3.65;;;17.10;99.90;;;;;;5053217;28;20098;-59
2022/05/18 01:35:37;;;;;;;14.55;4.25;;;17.20;99.90;;;;;;5052197;28;20051;-60
2022/05/18 01:38:02;;;;;;;9.02;3.90;;;17.10;99.90;;;;;;5052561;28;20063;-60
2022/05/18 01:40:49;;;;;;;5.93;3.28;;;17.10;99.90;;;;;;5053311;28;20056;-60
2022/05/18 01:43:22;;;;;;;8.73;3.38;;;17.10;99.90;;;;;;5053403;28;20044;-60
2022/05/18 01:45:53;;;;;;;7.90;3.40;;;17.10;99.90;;;;;;5052307;28;20021;-60
2022/05/18 01:48:22;;;;;;;5.45;3.85;;;17.00;99.90;;;;;;5052556;28;20045;-60
2022/05/18 01:50:49;;;;;;;5.13;3.50;;;17.10;99.90;;;;;;5052979;28;20021;-60
2022/05/18 01:53:15;;;;;;;6.18;3.28;;;17.10;99.90;;;;;;5052996;28;20028;-59
2022/05/18 01:55:40;;;;;;;8.88;3.90;;;17.10;99.90;;;;;;5051641;28;20029;-58
2022/05/18 01:58:09;;;;;;;11.05;4.25;;;17.10;99.90;;;;;;5051940;28;20025;-59
2022/05/18 02:00:35;;;;;;;7.45;3.40;;;16.90;99.90;;;;;;5052791;28;20514;-61
2022/05/18 02:03:00;;;;;;;5.10;3.60;;;16.70;99.90;;;;;;5051766;28;20112;-60
2022/05/18 02:05:26;;;;;;;5.35;3.15;;;16.70;99.90;;;;;;5054950;28;20029;-60
2022/05/18 02:07:52;;;;;;;7.10;3.13;;;16.60;99.90;;;;;;5057291;28;20021;-60
2022/05/18 02:10:18;;;;;;;7.28;3.28;;;16.60;99.90;;;;;;5055696;28;20079;-59
2022/05/18 02:12:44;;;;;;;4.82;3.30;;;16.60;99.90;;;;;;5056187;28;20024;-60
2022/05/18 02:15:10;;;;;;;4.75;3.30;;;16.50;99.90;;;;;;5055435;28;20036;-60
2022/05/18 02:17:37;;;;;;;8.05;3.25;;;16.40;99.90;;;;;;5056592;28;20048;-60
2022/05/18 02:20:04;;;;;;;3.78;3.05;;;16.40;99.90;;;;;;5056835;28;20101;-59
2022/05/18 02:22:30;;;;;;;15.30;4.90;;;16.40;99.90;;;;;;5055348;28;20472;-60
2022/05/18 02:24:55;;;;;;;4.50;3.42;;;16.30;99.90;;;;;;5056852;28;20060;-60
2022/05/18 02:27:21;;;;;;;9.02;3.30;;;16.30;99.90;;;;;;5056705;28;20049;-60
2022/05/18 02:29:47;;;;;;;8.90;3.63;;;16.30;99.90;;;;;;5056643;28;20025;-60
2022/05/18 02:32:12;;;;;;;14.60;3.88;;;16.20;99.90;;;;;;5056712;28;20025;-60
2022/05/18 02:34:38;;;;;;;7.65;4.40;;;16.20;99.90;;;;;;5056529;28;20036;-60
2022/05/18 02:37:04;;;;;;;4.82;3.17;;;16.10;99.90;;;;;;5055521;28;20021;-60
2022/05/18 02:39:30;;;;;;;12.40;3.75;;;16.10;99.90;;;;;;5055108;28;20036;-60
2022/05/18 02:41:56;;;;;;;4.88;3.30;;;16.10;99.90;;;;;;5055611;28;20112;-64
2022/05/18 02:44:22;;;;;;;9.63;3.88;;;16.10;99.90;;;;;;5055194;28;20070;-64
2022/05/18 02:46:47;;;;;;;13.85;4.00;;;16.10;99.90;;;;;;5055168;28;20033;-63
2022/05/18 02:49:15;;;;;;;5.50;2.80;;;16.00;99.90;;;;;;5055009;28;20036;-63
2022/05/18 02:51:41;;;;;;;4.97;3.45;;;16.00;99.90;;;;;;5055022;28;20025;-63
2022/05/18 02:56:05;;;;;;;4.93;3.30;;;15.90;99.90;;;;;;5056196;28;20383;-63
2022/05/18 02:56:54;;;;;;;7.20;3.50;;;15.90;99.90;;;;;;5056108;28;20063;-63
2022/05/18 02:59:21;;;;;;;8.98;3.22;;;15.90;99.90;;;;;;5054655;28;20471;-64
2022/05/18 03:01:47;;;;;;;7.88;3.90;;;15.90;99.90;;;;;;5056195;28;20052;-64
2022/05/18 03:04:13;;;;;;;7.22;4.07;;;16.00;99.90;;;;;;5054908;28;20127;-64
2022/05/18 03:06:39;;;;;;;13.27;3.45;;;16.00;99.90;;;;;;5055922;28;20057;-64
2022/05/18 03:09:05;;;;;;;8.13;4.20;;;16.00;99.90;;;;;;5054589;28;20071;-63
2022/05/18 03:11:31;;;;;;;7.72;4.22;;;16.10;99.90;;;;;;5055366;28;20024;-63
2022/05/18 03:13:56;;;;;;;7.55;3.88;;;16.10;99.90;;;;;;5055706;28;20032;-65
2022/05/18 03:16:25;;;;;;;5.05;3.22;;;16.10;99.90;;;;;;5055650;28;20037;-64
2022/05/18 03:18:50;;;;;;;5.45;3.35;;;16.10;99.90;;;;;;5054359;28;20036;-64
2022/05/18 03:24:00;;;;;;;7.57;4.00;;;16.20;99.90;;;;;;5055598;28;20052;-64
2022/05/18 03:26:26;;;;;;;6.38;3.75;;;16.20;99.90;;;;;;5054298;28;20021;-63
2022/05/18 03:28:56;;;;;;;5.30;3.72;;;16.20;99.90;;;;;;5054291;28;20025;-64
2022/05/18 03:31:23;;;;;;;8.13;3.67;;;16.30;99.90;;;;;;5054119;28;20053;-64
2022/05/18 03:33:50;;;;;;;7.13;4.15;;;16.40;99.90;;;;;;5054426;28;20075;-64
2022/05/18 03:36:18;;;;;;;6.95;4.93;;;16.40;99.90;;;;;;5055350;28;20025;-63
2022/05/18 03:38:45;;;;;;;9.75;3.72;;;16.30;99.90;;;;;;5055316;28;20176;-63
2022/05/18 03:41:11;;;;;;;7.95;4.05;;;16.20;99.90;;;;;;5055184;28;20029;-63
2022/05/18 03:43:36;;;;;;;9.63;4.63;;;16.20;99.90;;;;;;5053968;28;20032;-63
2022/05/18 03:46:03;;;;;;;7.03;4.00;;;16.30;99.90;;;;;;5055146;28;20025;-63
2022/05/18 03:48:30;;;;;;;9.00;4.72;;;16.30;99.90;;;;;;5055234;28;20024;-64
2022/05/18 03:50:58;;;;;;;6.97;3.75;;;16.30;99.90;;;;;;5053764;28;20021;-63
2022/05/18 03:53:25;;;;;;;5.30;3.90;;;16.40;99.90;;;;;;5055031;28;20021;-64
2022/05/18 03:55:51;;;;;;;6.57;4.03;;;16.40;99.90;;;;;;5054065;28;20029;-64
2022/05/18 03:58:17;;;;;;;7.30;4.40;;;16.40;99.90;;;;;;5054973;28;20115;-64
2022/05/18 04:00:45;;;;;;;7.47;3.60;;;16.50;99.90;;;;;;5053953;28;20028;-64
2022/05/18 04:03:12;;;;;;;8.77;4.22;;;16.60;99.90;;;;;;5053842;28;20021;-64
2022/05/18 04:05:38;;;;;;;5.35;3.05;;;16.80;99.90;;;;;;5053645;28;20027;-63
2022/05/18 04:08:07;;;;;;;5.32;2.97;;;16.80;99.90;;;;;;5053480;28;20024;-64
2022/05/18 04:10:33;;;;;;;5.07;3.45;;;16.90;99.90;;;;;;5053535;28;20074;-63
2022/05/18 04:12:58;;;;;;;4.80;2.97;;;16.90;99.90;;;;;;5053492;28;20021;-63
2022/05/18 04:15:24;;;;;;;6.60;3.38;;;16.80;99.90;;;;;;5055151;28;20072;-64
2022/05/18 04:17:50;;;;;;;8.55;3.40;;;16.80;99.90;;;;;;5053432;28;20025;-64
2022/05/18 04:20:18;;;;;;;6.22;3.63;;;16.80;99.90;;;;;;5053592;28;20384;-64
2022/05/18 04:22:45;;;;;;;6.93;3.53;;;16.80;99.90;;;;;;5053225;28;20025;-63
2022/05/18 04:25:13;;;;;;;5.85;3.40;;;16.80;99.90;;;;;;5054512;28;20044;-64
2022/05/18 04:27:39;;;;;;;4.40;3.47;;;16.90;99.90;;;;;;5052950;28;20610;-64
2022/05/18 04:30:06;;;;;;;7.25;3.92;;;16.90;99.90;;;;;;5054355;28;20056;-64
2022/05/18 04:32:31;;;;;;;10.60;3.67;;;16.90;99.90;;;;;;5054552;28;20380;-64
2022/05/18 04:34:57;;;;;;;10.20;4.15;;;16.90;99.90;;;;;;5054708;28;20032;-64
2022/05/18 04:37:23;;;;;;;5.95;4.10;;;17.00;99.90;;;;;;5054560;28;20119;-63
2022/05/18 04:39:48;;;;;;;7.28;4.50;;;17.00;99.90;;;;;;5054315;28;20024;-64
2022/05/18 04:42:15;;;;;;;7.18;4.22;;;17.10;99.90;;;;;;5053547;28;20021;-64
2022/05/18 04:44:40;;;;;;;9.07;4.40;;;17.20;99.90;;;;;;5053384;28;20039;-64
2022/05/18 04:47:06;;;;;;;5.90;4.13;;;17.20;99.90;;;;;;5053455;28;20111;-64
2022/05/18 04:49:32;;;;;;;13.43;3.97;;;17.30;99.90;;;;;;5052958;28;20479;-64
2022/05/18 04:51:59;;;;;;;6.70;4.03;;;17.30;99.90;;;;;;5052978;28;20491;-63
2022/05/18 04:54:24;;;;;;;6.38;4.57;;;17.40;99.90;;;;;;5054274;28;20025;-64
2022/05/18 04:56:50;;;;;;;11.88;4.68;;;17.50;99.90;;;;;;5052967;28;20120;-63
2022/05/18 04:59:16;;;;;;;7.15;3.75;;;17.50;99.90;;;;;;5052763;28;20025;-64
2022/05/18 05:01:43;;;;;;;6.88;4.40;;;17.50;99.90;;;;;;5054101;28;20021;-64
2022/05/18 05:04:09;;;;;;;7.03;4.40;;;17.60;99.90;;;;;;5053917;28;20509;-64
2022/05/18 05:06:40;;;;;;;13.75;5.38;;;17.70;99.90;;;;;;5052869;28;20075;-63
2022/05/18 05:09:06;;;;;;;8.75;4.97;;;17.80;99.90;;;;;;5054006;28;20095;-62
2022/05/18 05:11:32;;;;;;;8.18;4.93;;;17.70;99.90;;;;;;5054190;28;20032;-63
2022/05/18 05:13:58;;;;;;;8.75;4.70;;;17.80;99.90;;;;;;5052663;28;20044;-63
2022/05/18 05:16:26;;;;;;;6.25;4.00;;;17.80;99.90;;;;;;5052894;28;20047;-63
2022/05/18 05:18:51;;;;;;;8.27;4.93;;;18.00;99.90;;;;;;5053446;28;20025;-62
2022/05/18 05:21:17;;;;;;;12.68;3.83;;;18.20;99.90;;;;;;5053694;28;20024;-62
2022/05/18 05:23:43;;;;;;;10.15;4.40;;;18.40;99.90;;;;;;5054112;28;20033;-62
2022/05/18 05:26:09;;;;;;;3.80;3.45;;;18.70;99.90;;;;;;5053613;28;20025;-62
2022/05/18 05:28:34;;;;;;;5.75;3.38;;;18.80;99.90;;;;;;5053818;28;20025;-62
2022/05/18 05:31:04;;;;;;;6.55;3.50;;;19.00;99.90;;;;;;5053409;28;20543;-62
2022/05/18 05:33:31;;;;;;;6.90;4.50;;;19.30;99.90;;;;;;5053807;28;20427;-62
2022/05/18 05:35:57;;;;;;;7.45;4.10;;;19.50;99.90;;;;;;5053488;28;20029;-62
2022/05/18 05:38:23;;;;;;;7.53;3.88;;;19.60;99.90;;;;;;5052136;28;20029;-61
2022/05/18 05:40:49;;;;;;;5.80;4.65;;;19.70;99.90;;;;;;5052072;28;20349;-61
2022/05/18 05:43:15;;;;;;;6.20;4.28;;;19.60;99.90;;;;;;5053654;28;20075;-62
2022/05/18 05:45:40;;;;;;;5.55;3.85;;;19.60;99.90;;;;;;5052106;28;20025;-62
2022/05/18 05:48:08;;;;;;;5.60;4.30;;;19.80;99.90;;;;;;5052106;28;20025;-61
2022/05/18 05:50:34;;;;;;;7.13;4.28;;;20.10;99.90;;;;;;5051988;28;20032;-62
2022/05/18 05:53:00;;;;;;;9.98;3.83;;;20.50;99.90;;;;;;5053266;28;20029;-62
2022/05/18 05:55:27;;;;;;;4.90;3.70;;;20.90;99.90;;;;;;5053362;28;20499;-62
2022/05/18 05:57:56;;;;;;;5.55;2.92;;;21.10;99.90;;;;;;5051941;28;20032;-62
2022/05/18 06:00:23;;;;;;;6.47;3.35;;;21.40;99.90;;;;;;5051854;28;20110;-62
2022/05/18 06:02:50;;;;;;;4.82;3.40;;;21.90;99.90;;;;;;5053075;28;20044;-63
2022/05/18 06:05:17;;;;;;;5.43;2.70;;;22.50;99.90;;;;;;5053197;28;20017;-63
2022/05/18 06:07:42;;;;;;;5.57;3.75;;;23.40;99.90;;;;;;5052173;28;20031;-63
2022/05/18 06:10:09;;;;;;;5.40;2.80;;;24.30;99.90;;;;;;5052151;28;20111;-63
2022/05/18 06:12:35;;;;;;;4.35;3.30;;;25.10;99.90;;;;;;5052999;28;20029;-63
2022/05/18 06:15:01;;;;;;;4.93;3.30;;;25.70;99.90;;;;;;5051735;28;20102;-64
2022/05/18 06:17:27;;;;;;;5.45;3.10;;;26.50;99.90;;;;;;5053113;28;20024;-64
2022/05/18 06:19:53;;;;;;;3.38;2.50;;;27.30;99.90;;;;;;5053191;28;20029;-63
2022/05/18 06:22:18;;;;;;;6.28;2.78;;;27.90;99.90;;;;;;5052666;28;20035;-64
2022/05/18 06:24:47;;;;;;;3.22;2.60;;;28.70;99.90;;;;;;5052951;28;20021;-64
2022/05/18 06:27:13;;;;;;;4.20;2.67;;;29.20;99.90;;;;;;5052116;28;20017;-64
2022/05/18 06:29:39;;;;;;;3.95;2.60;;;29.70;99.90;;;;;;5051617;28;20032;-64
2022/05/18 06:32:05;;;;;;;5.18;2.95;;;30.10;99.90;;;;;;5053172;28;20081;-64
2022/05/18 06:34:31;;;;;;;5.47;2.85;;;29.70;99.90;;;;;;5053152;28;20104;-64
2022/05/18 06:36:57;;;;;;;3.75;3.30;;;30.00;99.90;;;;;;5053182;28;20059;-64
2022/05/18 06:39:23;;;;;;;8.77;3.58;;;29.30;99.90;;;;;;5053030;28;20025;-64
2022/05/18 06:42:12;;;;;;;4.97;3.22;;;28.10;99.90;;;;;;5051596;28;20021;-63
2022/05/18 06:44:38;;;;;;;8.95;3.65;;;27.70;99.90;;;;;;5053054;28;20177;-64
2022/05/18 06:47:04;;;;;;;7.60;3.50;;;28.00;99.90;;;;;;5051852;28;20025;-64
2022/05/18 06:49:29;;;;;;;6.05;3.20;;;28.90;99.90;;;;;;5051415;28;20017;-64
2022/05/18 06:51:58;;;;;;;5.18;3.40;;;29.50;99.90;;;;;;5055309;28;20025;-64
2022/05/18 06:54:24;;;;;;;7.07;3.65;;;29.30;99.90;;;;;;5056508;28;20032;-64
2022/05/18 06:56:49;;;;;;;7.57;3.65;;;27.80;99.90;;;;;;5055260;28;20029;-64
2022/05/18 06:59:15;;;;;;;5.65;3.28;;;27.20;99.90;;;;;;5056384;28;20037;-63
2022/05/18 07:01:42;;;;;;;5.78;3.95;;;27.40;99.90;;;;;;5055093;28;20021;-63
2022/05/18 07:04:10;;;;;;;5.18;3.97;;;27.10;99.90;;;;;;5054990;28;20029;-64
2022/05/18 07:06:39;;;;;;;5.45;3.50;;;27.30;99.90;;;;;;5055412;28;20059;-64
2022/05/18 07:09:09;;;;;;;5.60;3.30;;;27.40;99.90;;;;;;5056383;28;20021;-63
2022/05/18 07:11:37;;;;;;;6.53;3.78;;;27.70;99.90;;;;;;5054847;28;20090;-63
2022/05/18 07:14:05;;;;;;;4.90;3.22;;;28.20;99.90;;;;;;5054685;28;20037;-64
2022/05/18 07:16:32;;;;;;;5.78;3.65;;;29.00;99.90;;;;;;5055658;28;20029;-64
2022/05/18 07:18:58;;;;;;;13.65;4.55;;;29.30;99.90;;;;;;5054922;28;20035;-64
2022/05/18 07:21:25;;;;;;;6.25;3.55;;;29.60;99.90;;;;;;5056585;28;20025;-63
2022/05/18 07:23:52;;;;;;;5.90;3.08;;;29.50;99.90;;;;;;5055785;28;20049;-63
2022/05/18 07:26:18;;;;;;;13.60;5.57;;;30.00;99.90;;;;;;5055227;28;20103;-63
2022/05/18 07:28:44;;;;;;;5.03;3.70;;;30.80;99.90;;;;;;5055277;28;20021;-63
2022/05/18 07:31:11;;;;;;;6.28;3.40;;;30.50;99.90;;;;;;5054907;28;20029;-63
2022/05/18 07:33:37;;;;;;;6.78;3.50;;;30.50;99.90;;;;;;5059699;28;20029;-63
2022/05/18 07:36:03;;;;;;;6.53;3.55;;;30.40;99.90;;;;;;5056871;28;20032;-63
2022/05/18 07:38:31;;;;;;;5.55;3.58;;;30.60;99.90;;;;;;5057021;28;20029;-64
2022/05/18 07:40:57;;;;;;;5.28;3.28;;;30.70;99.90;;;;;;5055374;28;20017;-63
2022/05/18 07:43:22;;;;;;;4.88;3.25;;;30.70;99.90;;;;;;5057425;28;20111;-62
2022/05/18 07:45:51;;;;;;;4.50;3.42;;;30.30;99.90;;;;;;5056954;28;20017;-64
2022/05/18 07:48:17;;;;;;;7.47;4.13;;;30.20;99.90;;;;;;5055585;28;20024;-63
2022/05/18 07:50:43;;;;;;;6.82;3.90;;;29.60;99.90;;;;;;5056650;28;20101;-63
2022/05/18 07:53:09;;;;;;;5.55;3.65;;;30.00;99.90;;;;;;5054664;28;20063;-64
2022/05/18 07:55:35;;;;;;;5.35;3.47;;;30.30;99.90;;;;;;5054410;28;20060;-63
2022/05/18 07:58:05;;;;;;;6.03;3.20;;;30.60;99.90;;;;;;5055336;28;20031;-62
2022/05/18 08:00:31;;;;;;;6.13;3.45;;;30.50;99.90;;;;;;5055149;28;20028;-62
2022/05/18 08:02:56;;;;;;;5.43;3.15;;;30.80;99.40;;;;;;5054044;28;20033;-64
2022/05/18 08:05:22;;;;;;;6.30;3.35;;;30.70;98.80;;;;;;5055054;28;20028;-64
2022/05/18 08:07:47;;;;;;;10.48;3.72;;;30.90;99.00;;;;;;5054258;28;20057;-64
2022/05/18 08:15:49;;;;;;;4.47;2.97;;;31.30;97.80;;;;;;5055639;28;20106;-64
2022/05/18 08:18:16;;;;;;;6.38;2.95;;;31.50;98.20;;;;;;5053731;28;20032;-64
2022/05/18 08:20:43;;;;;;;5.28;3.17;;;31.90;96.50;;;;;;5053709;28;20112;-64
2022/05/18 08:23:10;;;;;;;6.57;3.35;;;32.30;97.10;;;;;;5053524;28;20063;-64
2022/05/18 08:25:37;;;;;;;7.68;3.50;;;32.20;96.00;;;;;;5053962;28;20048;-65
2022/05/18 08:28:04;;;;;;;7.80;2.90;;;32.10;96.00;;;;;;5054487;28;20025;-64
2022/05/18 08:30:31;;;;;;;5.75;3.08;;;31.90;95.70;;;;;;5054897;28;20025;-64
2022/05/18 08:33:01;;;;;;;7.07;3.13;;;31.80;95.40;;;;;;5054730;28;20020;-64
2022/05/18 08:35:28;;;;;;;7.10;2.88;;;31.40;96.00;;;;;;5054628;28;20028;-64
2022/05/18 08:37:55;;;;;;;10.10;3.22;;;31.40;96.20;;;;;;5054843;28;20028;-65
2022/05/18 08:40:36;;;;;;;7.10;3.15;;;31.60;95.60;;;;;;5054698;28;20025;-64
2022/05/18 08:43:06;;;;;;;10.35;3.17;;;32.40;93.60;;;;;;5053617;28;20036;-63
2022/05/18 08:45:38;;;;;;;7.68;3.55;;;31.70;93.00;;;;;;5053219;28;20146;-62
2022/05/18 08:48:33;;;;;;;10.18;3.63;;;30.80;94.00;;;;;;5053821;28;20092;-63
2022/05/18 08:51:11;;;;;;;6.82;2.72;;;31.30;94.90;;;;;;5054461;28;20021;-64
2022/05/18 08:54:06;;;;;;;5.65;2.20;;;31.30;94.80;;;;;;5054570;28;20060;-61
2022/05/18 08:56:42;;;;;;;6.97;3.50;;;32.40;94.70;;;;;;5053705;28;20064;-62
2022/05/18 08:59:22;;;;;;;8.40;3.33;;;33.80;91.80;;;;;;5054555;28;20024;-64
2022/05/18 09:01:51;;;;;;;6.10;2.87;;;33.30;91.60;;;;;;5053757;28;20021;-64
2022/05/18 09:05:03;;;;;;;3.28;2.60;;;32.10;91.80;;;;;;5053349;28;20112;-63
2022/05/18 09:07:36;;;;;;;7.47;3.10;;;31.50;91.60;;;;;;5031478;28;20033;-63
2022/05/18 09:10:16;;;;;;;5.82;2.97;;;32.10;92.50;;;;;;5052675;28;20095;-63
2022/05/18 09:12:47;;;;;;;5.43;2.85;;;32.30;93.00;;;;;;5053330;28;20031;-63
2022/05/18 09:15:34;;;;;;;5.00;2.38;;;31.60;92.00;;;;;;5052291;28;20079;-63
2022/05/18 09:18:22;;;;;;;4.18;2.40;;;32.20;92.50;;;;;;5053498;28;20056;-63
2022/05/18 09:21:13;;;;;;;5.32;2.63;;;32.40;92.10;;;;;;5052749;28;20029;-63
2022/05/18 09:23:48;;;;;;;6.75;2.50;;;33.30;91.50;;;;;;5052737;28;20025;-55
2022/05/18 09:26:17;;;;;;;4.40;2.72;;;34.70;87.40;;;;;;5052426;28;20060;-56
2022/05/18 09:28:53;;;;;;;3.33;2.28;;;35.00;84.30;;;;;;5052314;28;20021;-57
2022/05/18 09:32:08;;;;;;;4.50;2.45;;;33.40;86.50;;;;;;5053857;28;20419;-56
2022/05/18 09:34:36;;;;;;;5.43;2.60;;;33.20;88.40;;;;;;5011847;28;20528;-56
2022/05/18 09:37:28;;;;;;;6.00;2.30;;;33.40;89.40;;;;;;5011952;28;20045;-57
2022/05/18 09:39:59;;;;;;;8.80;2.38;;;34.30;87.80;;;;;;5035202;28;20056;-58
2022/05/18 09:42:32;;;;;;;4.85;2.40;;;36.10;83.10;;;;;;5052273;28;20116;-58
2022/05/18 09:44:57;;;;;;;3.78;2.15;;;37.20;78.60;;;;;;5053326;28;20021;-57
2022/05/18 09:47:26;;;;;;;3.58;2.40;;;37.90;76.90;;;;;;5053444;28;20024;-57
2022/05/18 09:49:55;;;;;;;8.05;2.20;;;37.90;76.70;;;;;;5051986;28;20017;-57
2022/05/18 09:52:26;;;;;;;5.65;3.00;;;38.70;73.10;;;;;;5053593;28;20361;-57
2022/05/18 09:54:55;;;;;;;5.63;2.38;;;39.00;71.10;;;;;;5053596;28;20073;-55
2022/05/18 09:57:28;;;;;;;5.70;2.45;;;39.30;71.40;;;;;;5051985;28;20029;-56
2022/05/18 10:00:06;;;;;;;3.97;2.28;;;40.00;69.40;;;;;;5053135;28;20096;-56
2022/05/18 10:08:43;;;;;;;3.33;2.42;;;37.10;69.90;;;;;;5053475;28;20040;-51
2022/05/18 10:11:15;;;;;;;6.65;2.30;;;36.30;70.60;;;;;;5053073;28;20105;-56
2022/05/18 10:14:03;;;;;;;5.25;2.40;;;36.50;71.70;;;;;;5052116;28;20025;-58
2022/05/18 10:16:44;;;;;;;9.10;2.70;;;37.30;70.40;;;;;;5046460;28;20123;-59
2022/05/18 10:19:28;;;;;;;7.50;2.90;;;37.70;67.80;;;;;;5053060;28;20063;-58
2022/05/18 10:21:59;;;;;;;3.63;2.25;;;37.20;67.70;;;;;;5052997;28;20025;-58
2022/05/18 10:24:27;;;;;;;4.63;1.83;;;36.20;70.40;;;;;;5052933;28;20104;-58
2022/05/18 10:27:16;;;;;;;2.58;2.20;;;36.30;68.10;;;;;;5054846;28;20053;-57
2022/05/18 10:30:02;;;;;;;6.93;2.30;;;33.80;71.70;;;;;;5056476;28;20021;-57
2022/05/18 10:32:29;;;;;;;4.32;2.70;;;32.40;73.40;;;;;;5055884;28;20067;-55
2022/05/18 10:34:56;;;;;;;7.20;2.55;;;31.20;75.10;;;;;;5056884;28;20055;-54
2022/05/18 10:37:29;;;;;;;7.13;2.97;;;30.40;79.10;;;;;;5055901;28;20025;-57
2022/05/18 10:40:09;;;;;;;3.55;2.20;;;29.90;79.40;;;;;;5056705;28;20032;-55
2022/05/18 10:42:51;;;;;;;3.03;2.25;;;29.20;82.70;;;;;;5055565;28;20029;-57
2022/05/18 10:45:25;;;;;;;4.97;2.17;;;29.10;82.80;;;;;;5056053;28;20063;-56
2022/05/18 10:47:53;;;;;;;4.20;2.65;;;29.20;81.80;;;;;;5055363;28;20086;-57
2022/05/18 10:50:20;;;;;;;3.97;1.90;;;29.20;82.90;;;;;;5056552;28;20071;-57
2022/05/18 10:52:47;;;;;;;4.70;2.00;;;29.00;83.70;;;;;;5056567;28;20017;-53
2022/05/18 10:55:16;;;;;;;5.93;2.35;;;28.60;82.30;;;;;;5057029;28;20021;-53
2022/05/18 10:57:55;;;;;;;4.43;2.42;;;28.10;84.50;;;;;;5056427;28;20025;-59
2022/05/18 11:00:23;;;;;;;7.43;2.30;;;27.90;85.50;;;;;;5055999;28;20079;-56
2022/05/18 11:02:58;;;;;;;5.53;2.33;;;27.90;86.00;;;;;;5056210;28;20488;-58
2022/05/18 11:05:35;;;;;;;5.05;2.15;;;28.00;86.20;;;;;;5055528;28;20021;-58
2022/05/18 11:08:00;;;;;;;3.90;2.60;;;28.20;85.80;;;;;;5055972;28;20021;-57
2022/05/18 11:10:41;;;;;;;3.03;2.30;;;28.50;86.20;;;;;;5055224;28;20032;-59
2022/05/18 11:13:15;;;;;;;4.25;2.35;;;28.70;87.50;;;;;;5055052;28;20021;-55
2022/05/18 11:15:54;;;;;;;3.17;1.88;;;29.00;87.70;;;;;;5055691;28;20067;-60
2022/05/18 11:18:26;;;;;;;5.55;2.28;;;28.60;86.30;;;;;;5054846;28;20037;-60
2022/05/18 11:21:14;;;;;;;4.80;2.05;;;28.50;85.00;;;;;;5054684;28;20028;-54
2022/05/18 11:23:58;;;;;;;7.47;2.55;;;28.20;87.20;;;;;;5056198;28;20028;-57
2022/05/18 11:26:54;;;;;;;8.07;2.30;;;28.30;87.20;;;;;;5055854;28;20025;-51
2022/05/18 11:29:47;;;;;;;4.53;2.60;;;27.40;86.10;;;;;;5055791;28;20032;-56
2022/05/18 11:32:22;;;;;;;7.13;2.38;;;27.40;89.80;;;;;;5056130;28;20017;-59
2022/05/18 11:35:14;;;;;;;7.03;2.25;;;27.40;90.00;;;;;;5056232;28;20476;-58
2022/05/18 11:38:00;;;;;;;4.85;2.40;;;27.10;89.30;;;;;;5034616;28;20045;-60
2022/05/18 11:40:48;;;;;;;4.15;2.10;;;27.10;89.00;;;;;;5024571;28;20086;-58
2022/05/18 11:43:50;;;;;;;6.03;2.58;;;27.10;88.20;;;;;;5054784;28;20096;-60
2022/05/18 11:46:35;;;;;;;5.10;3.15;;;27.00;90.00;;;;;;5054380;28;20025;-57
2022/05/18 11:49:23;;;;;;;3.63;2.33;;;26.80;90.00;;;;;;5055692;28;20052;-59
2022/05/18 11:52:16;;;;;;;6.25;2.40;;;26.70;88.50;;;;;;5055686;28;20021;-51
2022/05/18 11:55:09;;;;;;;5.70;2.58;;;26.70;89.10;;;;;;5054548;28;20025;-52
2022/05/18 11:58:02;;;;;;;5.72;2.47;;;26.60;91.00;;;;;;5054169;28;20036;-59
2022/05/18 12:00:57;;;;;;;2.97;2.08;;;26.60;90.00;;;;;;5055486;28;20048;-60
2022/05/18 12:03:53;;;;;;;3.60;2.20;;;26.80;90.60;;;;;;5055085;28;20021;-60
2022/05/18 12:06:42;;;;;;;7.90;2.40;;;26.80;90.30;;;;;;5055186;28;20499;-60
2022/05/18 12:09:41;;;;;;;6.00;2.38;;;26.70;89.90;;;;;;5025033;28;20033;-60
2022/05/18 12:12:19;;;;;;;6.25;2.53;;;26.90;90.80;;;;;;5054718;28;20017;-59
2022/05/18 12:15:02;;;;;;;8.32;2.72;;;26.80;90.70;;;;;;5055605;28;20039;-56
2022/05/18 12:18:09;;;;;;;3.65;1.98;;;26.80;90.00;;;;;;5054707;28;20021;-59
2022/05/18 12:20:40;;;;;;;3.30;1.95;;;26.90;91.10;;;;;;5024355;28;20033;-58
2022/05/18 12:23:10;;;;;;;6.30;2.47;;;27.10;90.70;;;;;;5053734;28;20472;-60
2022/05/18 12:25:37;;;;;;;3.05;2.20;;;27.20;90.50;;;;;;5053519;28;20392;-60
2022/05/18 12:28:05;;;;;;;4.50;2.00;;;27.50;90.40;;;;;;5054716;28;20028;-59
2022/05/18 12:30:35;;;;;;;4.00;2.50;;;27.50;90.40;;;;;;5053704;28;20025;-59
2022/05/18 12:33:03;;;;;;;3.95;1.85;;;27.50;87.70;;;;;;5054338;28;20013;-58
2022/05/18 12:35:46;;;;;;;8.30;2.92;;;27.50;90.50;;;;;;5053386;28;20086;-54
2022/05/18 12:38:28;;;;;;;4.38;2.20;;;27.50;88.30;;;;;;5054882;28;20032;-61
2022/05/18 12:41:11;;;;;;;4.50;1.92;;;27.00;87.90;;;;;;5054499;28;20029;-61
2022/05/18 12:43:55;;;;;;;5.68;2.30;;;26.90;90.20;;;;;;5054502;28;20021;-60
2022/05/18 12:46:32;;;;;;;5.93;2.13;;;26.70;90.10;;;;;;5053240;28;20066;-55
2022/05/18 12:49:05;;;;;;;3.78;2.00;;;26.70;87.60;;;;;;5053352;28;20025;-59
2022/05/18 12:51:52;;;;;;;4.57;2.05;;;26.70;89.20;;;;;;5054592;28;20025;-59
2022/05/18 12:54:42;;;;;;;6.38;2.33;;;26.80;88.60;;;;;;5054301;28;20028;-59
2022/05/18 12:57:08;;;;;;;2.53;2.10;;;26.90;88.60;;;;;;5053096;28;20020;-57
2022/05/18 13:00:18;;;;;;;6.13;2.40;;;26.80;90.10;;;;;;5054658;28;20078;-57
2022/05/18 13:02:52;;;;;;;2.65;2.10;;;27.00;88.00;;;;;;5043778;28;20041;-57
2022/05/18 13:05:26;;;;;;;3.00;1.95;;;26.80;86.50;;;;;;5054001;28;20032;-59
2022/05/18 13:08:08;;;;;;;4.13;2.40;;;26.80;88.70;;;;;;5054024;28;20032;-59
2022/05/18 13:10:37;;;;;;;3.08;2.10;;;26.70;90.40;;;;;;5054028;28;20025;-59
2022/05/18 13:13:25;;;;;;;5.75;2.42;;;26.90;90.90;;;;;;5052701;28;20040;-55
2022/05/18 13:15:51;;;;;;;7.25;1.80;;;27.00;88.50;;;;;;5052596;28;20487;-54
2022/05/18 13:18:41;;;;;;;3.85;2.15;;;27.00;88.80;;;;;;5053872;28;20032;-58
2022/05/18 13:21:06;;;;;;;5.72;2.42;;;27.00;89.40;;;;;;5052086;28;20396;-53